sensor_id;sensor_type;location;lat;lon;timestamp;pressure;altitude;pressure_sealevel;temperature;humidity
66164;BME280;52962;51.088;3.096;2022-10-03T00:00:11;102420.50;;;10.48;100.00
66164;BME280;52962;51.088;3.096;2022-10-03T00:06:05;102434.50;;;10.47;100.00
66164;BME280;52962;51.088;3.096;2022-10-03T00:08:58;102436.31;;;10.48;100.00
66164;BME280;52962;51.088;3.096;2022-10-03T00:11:38;102438.88;;;10.47;100.00
66164;BME280;52962;51.088;3.096;2022-10-03T00:14:16;102442.47;;;10.49;100.00
66164;BME280;52962;51.088;3.096;2022-10-03T00:16:49;102443.38;;;10.49;100.00
66164;BME280;52962;51.088;3.096;2022-10-03T00:19:25;102442.94;;;10.40;100.00
66164;BME280;52962;51.088;3.096;2022-10-03T00:57:05;102461.06;;;10.33;100.00
66164;BME280;52962;51.088;3.096;2022-10-03T01:00:10;102469.94;;;10.35;100.00
66164;BME280;52962;51.088;3.096;2022-10-03T01:02:46;102472.72;;;10.38;100.00
66164;BME280;52962;51.088;3.096;2022-10-03T01:05:25;102469.19;;;10.37;100.00
66164;BME280;52962;51.088;3.096;2022-10-03T01:08:09;102469.28;;;10.40;100.00
66164;BME280;52962;51.088;3.096;2022-10-03T01:10:50;102477.16;;;10.39;100.00
66164;BME280;52962;51.088;3.096;2022-10-03T01:13:30;102477.91;;;10.36;100.00
66164;BME280;52962;51.088;3.096;2022-10-03T01:16:12;102479.72;;;10.37;100.00
66164;BME280;52962;51.088;3.096;2022-10-03T01:18:54;102481.44;;;10.37;100.00
66164;BME280;52962;51.088;3.096;2022-10-03T01:21:33;102479.56;;;10.34;100.00
66164;BME280;52962;51.088;3.096;2022-10-03T01:24:36;102480.41;;;10.33;100.00
66164;BME280;52962;51.088;3.096;2022-10-03T01:27:16;102483.03;;;10.33;100.00
66164;BME280;52962;51.088;3.096;2022-10-03T01:29:51;102474.16;;;10.31;100.00
66164;BME280;52962;51.088;3.096;2022-10-03T01:32:43;102473.03;;;10.26;100.00
66164;BME280;52962;51.088;3.096;2022-10-03T01:35:21;102469.66;;;10.29;100.00
66164;BME280;52962;51.088;3.096;2022-10-03T01:37:57;102466.13;;;10.28;100.00
66164;BME280;52962;51.088;3.096;2022-10-03T01:40:32;102456.13;;;10.21;100.00
66164;BME280;52962;51.088;3.096;2022-10-03T01:43:09;102449.56;;;10.13;100.00
66164;BME280;52962;51.088;3.096;2022-10-03T01:45:47;102452.72;;;10.06;100.00
66164;BME280;52962;51.088;3.096;2022-10-03T01:48:21;102448.13;;;10.02;100.00
66164;BME280;52962;51.088;3.096;2022-10-03T01:50:57;102454.22;;;10.01;100.00
66164;BME280;52962;51.088;3.096;2022-10-03T01:53:37;102452.50;;;10.01;100.00
66164;BME280;52962;51.088;3.096;2022-10-03T01:56:10;102455.06;;;10.00;100.00
66164;BME280;52962;51.088;3.096;2022-10-03T01:58:49;102452.72;;;10.06;100.00
66164;BME280;52962;51.088;3.096;2022-10-03T02:01:28;102460.75;;;10.09;100.00
66164;BME280;52962;51.088;3.096;2022-10-03T02:04:03;102462.41;;;10.07;100.00
66164;BME280;52962;51.088;3.096;2022-10-03T02:06:43;102464.00;;;10.03;100.00
66164;BME280;52962;51.088;3.096;2022-10-03T02:09:22;102471.16;;;10.06;100.00
66164;BME280;52962;51.088;3.096;2022-10-03T02:12:03;102467.84;;;10.10;100.00
66164;BME280;52962;51.088;3.096;2022-10-03T02:14:40;102476.56;;;10.09;100.00
66164;BME280;52962;51.088;3.096;2022-10-03T02:17:24;102469.72;;;10.12;100.00
66164;BME280;52962;51.088;3.096;2022-10-03T02:20:03;102467.97;;;10.13;100.00
66164;BME280;52962;51.088;3.096;2022-10-03T02:22:37;102473.16;;;10.11;100.00
66164;BME280;52962;51.088;3.096;2022-10-03T02:25:19;102468.97;;;10.15;100.00
66164;BME280;52962;51.088;3.096;2022-10-03T02:28:02;102469.78;;;10.14;100.00
66164;BME280;52962;51.088;3.096;2022-10-03T02:30:49;102471.16;;;10.06;100.00
66164;BME280;52962;51.088;3.096;2022-10-03T02:33:50;102470.84;;;10.00;100.00
66164;BME280;52962;51.088;3.096;2022-10-03T02:36:47;102458.38;;;9.96;100.00
66164;BME280;52962;51.088;3.096;2022-10-03T02:39:56;102459.88;;;9.91;100.00
66164;BME280;52962;51.088;3.096;2022-10-03T02:52:13;102484.22;;;9.87;100.00
66164;BME280;52962;51.088;3.096;2022-10-03T02:58:11;102483.41;;;9.88;100.00
66164;BME280;52962;51.088;3.096;2022-10-03T03:01:15;102483.72;;;9.94;100.00
66164;BME280;52962;51.088;3.096;2022-10-03T03:04:06;102480.25;;;9.95;100.00
66164;BME280;52962;51.088;3.096;2022-10-03T03:07:00;102484.69;;;9.96;100.00
66164;BME280;52962;51.088;3.096;2022-10-03T03:09:45;102479.28;;;9.93;100.00
66164;BME280;52962;51.088;3.096;2022-10-03T03:12:50;102470.53;;;9.94;100.00
66164;BME280;52962;51.088;3.096;2022-10-03T03:16:01;102472.44;;;9.96;100.00
66164;BME280;52962;51.088;3.096;2022-10-03T03:18:41;102468.13;;;9.98;100.00
66164;BME280;52962;51.088;3.096;2022-10-03T03:21:18;102474.22;;;9.97;100.00
66164;BME280;52962;51.088;3.096;2022-10-03T03:27:03;102477.63;;;9.95;100.00
66164;BME280;52962;51.088;3.096;2022-10-03T03:29:42;102468.75;;;9.93;100.00
66164;BME280;52962;51.088;3.096;2022-10-03T03:32:21;102466.88;;;9.90;100.00
66164;BME280;52962;51.088;3.096;2022-10-03T03:34:58;102472.13;;;9.90;100.00
66164;BME280;52962;51.088;3.096;2022-10-03T03:37:35;102467.53;;;9.86;100.00
66164;BME280;52962;51.088;3.096;2022-10-03T03:40:18;102481.44;;;9.83;100.00
66164;BME280;52962;51.088;3.096;2022-10-03T03:43:07;102482.28;;;9.82;100.00
66164;BME280;52962;51.088;3.096;2022-10-03T03:45:44;102478.66;;;9.80;100.00
66164;BME280;52962;51.088;3.096;2022-10-03T03:48:37;102484.84;;;9.81;100.00
66164;BME280;52962;51.088;3.096;2022-10-03T03:51:21;102477.00;;;9.82;100.00
66164;BME280;52962;51.088;3.096;2022-10-03T03:54:20;102469.13;;;9.82;100.00
66164;BME280;52962;51.088;3.096;2022-10-03T03:57:00;102474.22;;;9.79;100.00
66164;BME280;52962;51.088;3.096;2022-10-03T03:59:49;102469.94;;;9.81;100.00
66164;BME280;52962;51.088;3.096;2022-10-03T04:02:26;102478.75;;;9.82;100.00
66164;BME280;52962;51.088;3.096;2022-10-03T04:05:07;102471.75;;;9.82;100.00
66164;BME280;52962;51.088;3.096;2022-10-03T04:07:48;102478.81;;;9.83;100.00
66164;BME280;52962;51.088;3.096;2022-10-03T04:10:33;102474.38;;;9.82;100.00
66164;BME280;52962;51.088;3.096;2022-10-03T04:13:15;102475.22;;;9.81;100.00
66164;BME280;52962;51.088;3.096;2022-10-03T04:15:59;102471.59;;;9.79;100.00
66164;BME280;52962;51.088;3.096;2022-10-03T04:18:45;102477.75;;;9.80;100.00
66164;BME280;52962;51.088;3.096;2022-10-03T04:21:38;102485.59;;;9.78;100.00
66164;BME280;52962;51.088;3.096;2022-10-03T04:24:20;102476.72;;;9.76;100.00
66164;BME280;52962;51.088;3.096;2022-10-03T04:27:12;102480.16;;;9.75;100.00
66164;BME280;52962;51.088;3.096;2022-10-03T04:29:43;102482.50;;;9.69;100.00
66164;BME280;52962;51.088;3.096;2022-10-03T04:32:27;102479.88;;;9.69;100.00
66164;BME280;52962;51.088;3.096;2022-10-03T04:35:19;102478.97;;;9.69;100.00
66164;BME280;52962;51.088;3.096;2022-10-03T04:37:59;102475.50;;;9.70;100.00
66164;BME280;52962;51.088;3.096;2022-10-03T04:40:44;102472.66;;;9.65;100.00
66164;BME280;52962;51.088;3.096;2022-10-03T04:43:23;102482.09;;;9.62;100.00
66164;BME280;52962;51.088;3.096;2022-10-03T04:46:07;102478.50;;;9.60;100.00
66164;BME280;52962;51.088;3.096;2022-10-03T04:48:44;102487.22;;;9.59;100.00
66164;BME280;52962;51.088;3.096;2022-10-03T04:51:23;102487.13;;;9.57;100.00
66164;BME280;52962;51.088;3.096;2022-10-03T04:54:01;102482.69;;;9.56;100.00
66164;BME280;52962;51.088;3.096;2022-10-03T04:56:41;102478.94;;;9.51;100.00
66164;BME280;52962;51.088;3.096;2022-10-03T04:59:41;102486.00;;;9.52;100.00
66164;BME280;52962;51.088;3.096;2022-10-03T05:02:24;102482.38;;;9.50;100.00
66164;BME280;52962;51.088;3.096;2022-10-03T05:05:24;102486.75;;;9.49;100.00
66164;BME280;52962;51.088;3.096;2022-10-03T05:08:01;102489.31;;;9.48;100.00
66164;BME280;52962;51.088;3.096;2022-10-03T05:10:46;102490.94;;;9.46;100.00
66164;BME280;52962;51.088;3.096;2022-10-03T05:13:21;102480.44;;;9.46;100.00
66164;BME280;52962;51.088;3.096;2022-10-03T05:16:02;102487.50;;;9.47;100.00
66164;BME280;52962;51.088;3.096;2022-10-03T05:18:36;102477.81;;;9.46;100.00
66164;BME280;52962;51.088;3.096;2022-10-03T05:21:12;102478.47;;;9.42;100.00
66164;BME280;52962;51.088;3.096;2022-10-03T05:23:52;102474.84;;;9.40;100.00
66164;BME280;52962;51.088;3.096;2022-10-03T05:26:39;102491.53;;;9.40;100.00
66164;BME280;52962;51.088;3.096;2022-10-03T05:29:17;102485.22;;;9.37;100.00
66164;BME280;52962;51.088;3.096;2022-10-03T05:31:56;102476.50;;;9.38;100.00
66164;BME280;52962;51.088;3.096;2022-10-03T05:34:41;102472.16;;;9.38;100.00
66164;BME280;52962;51.088;3.096;2022-10-03T05:37:31;102479.84;;;9.34;100.00
66164;BME280;52962;51.088;3.096;2022-10-03T05:40:06;102483.28;;;9.33;100.00
66164;BME280;52962;51.088;3.096;2022-10-03T05:43:12;102477.06;;;9.31;100.00
66164;BME280;52962;51.088;3.096;2022-10-03T05:45:49;102478.03;;;9.33;100.00
66164;BME280;52962;51.088;3.096;2022-10-03T05:48:29;102480.75;;;9.34;100.00
66164;BME280;52962;51.088;3.096;2022-10-03T05:51:06;102468.50;;;9.35;100.00
66164;BME280;52962;51.088;3.096;2022-10-03T05:54:02;102483.44;;;9.36;100.00
66164;BME280;52962;51.088;3.096;2022-10-03T05:56:52;102483.44;;;9.36;100.00
66164;BME280;52962;51.088;3.096;2022-10-03T05:59:35;102478.19;;;9.36;100.00
66164;BME280;52962;51.088;3.096;2022-10-03T06:02:31;102483.38;;;9.34;100.00
66164;BME280;52962;51.088;3.096;2022-10-03T06:05:14;102486.91;;;9.35;100.00
66164;BME280;52962;51.088;3.096;2022-10-03T06:07:56;102488.56;;;9.33;100.00
66164;BME280;52962;51.088;3.096;2022-10-03T06:10:46;102492.09;;;9.33;100.00
66164;BME280;52962;51.088;3.096;2022-10-03T06:13:22;102489.53;;;9.35;100.00
66164;BME280;52962;51.088;3.096;2022-10-03T06:15:59;102495.75;;;9.37;100.00
66164;BME280;52962;51.088;3.096;2022-10-03T06:21:42;102500.50;;;9.44;100.00
66164;BME280;52962;51.088;3.096;2022-10-03T06:24:40;102503.28;;;9.47;100.00
66164;BME280;52962;51.088;3.096;2022-10-03T06:30:45;102503.75;;;9.56;100.00
66164;BME280;52962;51.088;3.096;2022-10-03T06:37:04;102510.44;;;9.67;100.00
66164;BME280;52962;51.088;3.096;2022-10-03T06:46:15;102502.50;;;9.83;100.00
66164;BME280;52962;51.088;3.096;2022-10-03T06:49:04;102505.59;;;9.93;100.00
66164;BME280;52962;51.088;3.096;2022-10-03T06:55:17;102527.25;;;10.05;100.00
66164;BME280;52962;51.088;3.096;2022-10-03T06:58:24;102526.66;;;10.10;100.00
66164;BME280;52962;51.088;3.096;2022-10-03T07:01:18;102523.41;;;10.16;100.00
66164;BME280;52962;51.088;3.096;2022-10-03T07:04:15;102534.22;;;10.21;100.00
66164;BME280;52962;51.088;3.096;2022-10-03T07:07:04;102538.25;;;10.32;100.00
66164;BME280;52962;51.088;3.096;2022-10-03T07:12:59;102538.81;;;10.44;100.00
66164;BME280;52962;51.088;3.096;2022-10-03T07:16:09;102543.47;;;10.49;100.00
66164;BME280;52962;51.088;3.096;2022-10-03T07:19:30;102541.28;;;10.59;100.00
66164;BME280;52962;51.088;3.096;2022-10-03T07:25:31;102549.28;;;10.79;100.00
66164;BME280;52962;51.088;3.096;2022-10-03T07:28:21;102558.31;;;10.85;100.00
66164;BME280;52962;51.088;3.096;2022-10-03T07:31:01;102554.38;;;10.94;100.00
66164;BME280;52962;51.088;3.096;2022-10-03T07:37:01;102558.13;;;10.99;100.00
66164;BME280;52962;51.088;3.096;2022-10-03T07:40:18;102554.66;;;11.00;100.00
66164;BME280;52962;51.088;3.096;2022-10-03T07:46:31;102562.34;;;11.15;100.00
66164;BME280;52962;51.088;3.096;2022-10-03T07:49:19;102554.66;;;11.20;100.00
66164;BME280;52962;51.088;3.096;2022-10-03T07:52:06;102560.00;;;11.21;100.00
66164;BME280;52962;51.088;3.096;2022-10-03T07:54:57;102571.72;;;11.28;100.00
66164;BME280;52962;51.088;3.096;2022-10-03T07:57:57;102570.34;;;11.36;100.00
66164;BME280;52962;51.088;3.096;2022-10-03T08:00:40;102568.91;;;11.44;100.00
66164;BME280;52962;51.088;3.096;2022-10-03T08:03:43;102566.88;;;11.58;100.00
66164;BME280;52962;51.088;3.096;2022-10-03T08:06:23;102575.13;;;11.65;100.00
66164;BME280;52962;51.088;3.096;2022-10-03T08:09:19;102559.97;;;11.81;100.00
66164;BME280;52962;51.088;3.096;2022-10-03T08:12:18;102568.22;;;11.88;100.00
66164;BME280;52962;51.088;3.096;2022-10-03T08:14:55;102574.88;;;11.99;100.00
66164;BME280;52962;51.088;3.096;2022-10-03T08:17:55;102568.22;;;12.09;100.00
66164;BME280;52962;51.088;3.096;2022-10-03T08:20:39;102567.13;;;12.25;100.00
66164;BME280;52962;51.088;3.096;2022-10-03T08:26:18;102578.84;;;12.54;100.00
66164;BME280;52962;51.088;3.096;2022-10-03T08:29:16;102583.75;;;12.67;100.00
66164;BME280;52962;51.088;3.096;2022-10-03T08:32:08;102579.13;;;12.84;100.00
66164;BME280;52962;51.088;3.096;2022-10-03T08:35:03;102574.63;;;13.03;100.00
66164;BME280;52962;51.088;3.096;2022-10-03T08:50:30;102562.72;;;13.64;100.00
66164;BME280;52962;51.088;3.096;2022-10-03T08:53:20;102555.03;;;13.71;100.00
66164;BME280;52962;51.088;3.096;2022-10-03T08:55:58;102558.84;;;13.80;100.00
66164;BME280;52962;51.088;3.096;2022-10-03T08:58:58;102544.97;;;13.87;100.00
66164;BME280;52962;51.088;3.096;2022-10-03T09:02:06;102543.59;;;13.98;100.00
66164;BME280;52962;51.088;3.096;2022-10-03T09:08:34;102545.75;;;14.36;100.00
66164;BME280;52962;51.088;3.096;2022-10-03T09:11:32;102538.22;;;14.49;100.00
66164;BME280;52962;51.088;3.096;2022-10-03T09:14:37;102537.66;;;14.60;100.00
66164;BME280;52962;51.088;3.096;2022-10-03T09:26:53;102544.75;;;14.90;100.00
66164;BME280;52962;51.088;3.096;2022-10-03T09:29:41;102549.44;;;14.98;100.00
66164;BME280;52962;51.088;3.096;2022-10-03T09:32:40;102553.97;;;15.02;100.00
66164;BME280;52962;51.088;3.096;2022-10-03T09:41:32;102545.94;;;15.31;100.00
66164;BME280;52962;51.088;3.096;2022-10-03T09:44:28;102545.13;;;15.33;100.00
66164;BME280;52962;51.088;3.096;2022-10-03T09:47:37;102532.88;;;15.38;100.00
66164;BME280;52962;51.088;3.096;2022-10-03T09:56:59;102514.22;;;15.68;100.00
66164;BME280;52962;51.088;3.096;2022-10-03T09:59:39;102506.59;;;15.82;100.00
66164;BME280;52962;51.088;3.096;2022-10-03T10:02:42;102510.47;;;15.95;100.00
66164;BME280;52962;51.088;3.096;2022-10-03T10:05:36;102505.38;;;16.04;100.00
66164;BME280;52962;51.088;3.096;2022-10-03T10:11:31;102513.47;;;16.09;100.00
66164;BME280;52962;51.088;3.096;2022-10-03T10:17:39;102504.53;;;16.05;100.00
66164;BME280;52962;51.088;3.096;2022-10-03T10:20:28;102510.78;;;16.07;100.00
66164;BME280;52962;51.088;3.096;2022-10-03T10:23:18;102516.84;;;16.01;100.00
66164;BME280;52962;51.088;3.096;2022-10-03T10:29:36;102509.91;;;16.08;100.00
66164;BME280;52962;51.088;3.096;2022-10-03T10:32:40;102507.03;;;15.99;100.00
66164;BME280;52962;51.088;3.096;2022-10-03T10:35:47;102506.88;;;15.93;100.00
66164;BME280;52962;51.088;3.096;2022-10-03T10:38:50;102508.63;;;15.92;100.00
66164;BME280;52962;51.088;3.096;2022-10-03T10:48:13;102516.69;;;15.95;100.00
66164;BME280;52962;51.088;3.096;2022-10-03T10:51:35;102504.06;;;15.87;100.00
66164;BME280;52962;51.088;3.096;2022-10-03T10:54:40;102509.69;;;15.99;100.00
66164;BME280;52962;51.088;3.096;2022-10-03T10:57:43;102499.09;;;16.00;100.00
66164;BME280;52962;51.088;3.096;2022-10-03T11:00:24;102497.63;;;16.13;100.00
66164;BME280;52962;51.088;3.096;2022-10-03T11:09:37;102497.41;;;16.42;100.00
66164;BME280;52962;51.088;3.096;2022-10-03T11:15:52;102483.53;;;16.55;100.00
66164;BME280;52962;51.088;3.096;2022-10-03T11:19:00;102485.41;;;16.60;100.00
66164;BME280;52962;51.088;3.096;2022-10-03T11:25:35;102468.63;;;16.63;100.00
66164;BME280;52962;51.088;3.096;2022-10-03T11:32:08;102460.13;;;16.81;100.00
66164;BME280;52962;51.088;3.096;2022-10-03T11:35:12;102463.78;;;16.86;100.00
66164;BME280;52962;51.088;3.096;2022-10-03T11:37:51;102459.53;;;16.95;100.00
66164;BME280;52962;51.088;3.096;2022-10-03T11:40:28;102458.72;;;16.98;100.00
66164;BME280;52962;51.088;3.096;2022-10-03T11:46:21;102453.50;;;17.04;100.00
66164;BME280;52962;51.088;3.096;2022-10-03T11:48:53;102450.94;;;17.09;100.00
66164;BME280;52962;51.088;3.096;2022-10-03T11:51:35;102459.97;;;17.17;100.00
66164;BME280;52962;51.088;3.096;2022-10-03T11:54:15;102454.03;;;17.31;100.00
66164;BME280;52962;51.088;3.096;2022-10-03T11:57:00;102459.41;;;17.35;100.00
66164;BME280;52962;51.088;3.096;2022-10-03T12:02:28;102452.59;;;17.50;100.00
66164;BME280;52962;51.088;3.096;2022-10-03T12:05:10;102455.41;;;17.59;100.00
66164;BME280;52962;51.088;3.096;2022-10-03T12:07:45;102461.00;;;17.75;100.00
66164;BME280;52962;51.088;3.096;2022-10-03T12:10:47;102463.09;;;17.94;100.00
66164;BME280;52962;51.088;3.096;2022-10-03T12:13:23;102455.06;;;17.91;100.00
66164;BME280;52962;51.088;3.096;2022-10-03T12:15:56;102452.56;;;18.03;100.00
66164;BME280;52962;51.088;3.096;2022-10-03T12:18:47;102465.22;;;18.16;100.00
66164;BME280;52962;51.088;3.096;2022-10-03T12:21:21;102454.59;;;18.19;100.00
66164;BME280;52962;51.088;3.096;2022-10-03T12:24:16;102446.66;;;18.24;100.00
66164;BME280;52962;51.088;3.096;2022-10-03T12:26:53;102439.63;;;18.29;100.00
66164;BME280;52962;51.088;3.096;2022-10-03T12:29:24;102438.91;;;18.41;100.00
66164;BME280;52962;51.088;3.096;2022-10-03T12:32:16;102446.03;;;18.42;100.00
66164;BME280;52962;51.088;3.096;2022-10-03T12:34:57;102445.16;;;18.43;100.00
66164;BME280;52962;51.088;3.096;2022-10-03T12:37:52;102442.28;;;18.29;100.00
66164;BME280;52962;51.088;3.096;2022-10-03T12:40:27;102445.09;;;18.38;100.00
66164;BME280;52962;51.088;3.096;2022-10-03T12:43:04;102441.59;;;18.44;100.00
66164;BME280;52962;51.088;3.096;2022-10-03T12:45:39;102441.78;;;18.56;100.00
66164;BME280;52962;51.088;3.096;2022-10-03T12:48:25;102443.75;;;18.72;100.00
66164;BME280;52962;51.088;3.096;2022-10-03T12:51:07;102441.13;;;18.75;100.00
66164;BME280;52962;51.088;3.096;2022-10-03T12:53:48;102440.22;;;18.75;100.00
66164;BME280;52962;51.088;3.096;2022-10-03T12:56:24;102435.59;;;18.60;100.00
66164;BME280;52962;51.088;3.096;2022-10-03T12:59:06;102431.13;;;18.57;100.00
66164;BME280;52962;51.088;3.096;2022-10-03T13:02:06;102422.13;;;18.51;100.00
66164;BME280;52962;51.088;3.096;2022-10-03T13:04:43;102422.34;;;18.65;100.00
66164;BME280;52962;51.088;3.096;2022-10-03T13:07:23;102413.47;;;18.66;100.00
66164;BME280;52962;51.088;3.096;2022-10-03T13:10:02;102414.41;;;18.69;100.00
66164;BME280;52962;51.088;3.096;2022-10-03T13:12:41;102404.63;;;18.71;100.00
66164;BME280;52962;51.088;3.096;2022-10-03T13:15:53;102403.69;;;18.66;100.00
66164;BME280;52962;51.088;3.096;2022-10-03T13:18:32;102396.53;;;18.64;100.00
66164;BME280;52962;51.088;3.096;2022-10-03T13:21:07;102398.22;;;18.57;100.00
66164;BME280;52962;51.088;3.096;2022-10-03T13:24:01;102393.66;;;18.50;100.00
66164;BME280;52962;51.088;3.096;2022-10-03T13:26:50;102390.94;;;18.44;100.00
66164;BME280;52962;51.088;3.096;2022-10-03T13:29:26;102398.00;;;18.42;100.00
66164;BME280;52962;51.088;3.096;2022-10-03T13:32:12;102384.63;;;18.37;100.00
66164;BME280;52962;51.088;3.096;2022-10-03T13:34:56;102380.06;;;18.28;100.00
66164;BME280;52962;51.088;3.096;2022-10-03T13:38:01;102386.19;;;18.23;100.00
66164;BME280;52962;51.088;3.096;2022-10-03T13:40:38;102380.75;;;18.14;100.00
66164;BME280;52962;51.088;3.096;2022-10-03T13:43:11;102379.84;;;18.13;100.00
66164;BME280;52962;51.088;3.096;2022-10-03T13:45:43;102383.41;;;18.12;100.00
66164;BME280;52962;51.088;3.096;2022-10-03T13:48:18;102371.69;;;18.03;100.00
66164;BME280;52962;51.088;3.096;2022-10-03T13:50:49;102363.72;;;18.04;100.00
66164;BME280;52962;51.088;3.096;2022-10-03T13:53:38;102369.31;;;18.22;100.00
66164;BME280;52962;51.088;3.096;2022-10-03T13:56:10;102357.09;;;18.40;100.00
66164;BME280;52962;51.088;3.096;2022-10-03T13:58:45;102352.81;;;18.55;100.00
66164;BME280;52962;51.088;3.096;2022-10-03T14:01:28;102345.00;;;18.69;100.00
66164;BME280;52962;51.088;3.096;2022-10-03T14:04:24;102347.66;;;18.66;100.00
66164;BME280;52962;51.088;3.096;2022-10-03T14:06:59;102353.63;;;18.47;100.00
66164;BME280;52962;51.088;3.096;2022-10-03T14:09:37;102344.66;;;18.40;100.00
66164;BME280;52962;51.088;3.096;2022-10-03T14:12:18;102342.88;;;18.42;100.00
66164;BME280;52962;51.088;3.096;2022-10-03T14:15:18;102335.75;;;18.41;100.00
66164;BME280;52962;51.088;3.096;2022-10-03T14:17:50;102338.41;;;18.38;100.00
66164;BME280;52962;51.088;3.096;2022-10-03T14:20:27;102341.88;;;18.33;100.00
66164;BME280;52962;51.088;3.096;2022-10-03T14:23:07;102342.88;;;18.41;100.00
66164;BME280;52962;51.088;3.096;2022-10-03T14:25:40;102335.78;;;18.43;100.00
66164;BME280;52962;51.088;3.096;2022-10-03T14:28:17;102341.09;;;18.40;100.00
66164;BME280;52962;51.088;3.096;2022-10-03T14:30:58;102334.91;;;18.44;100.00
66164;BME280;52962;51.088;3.096;2022-10-03T14:33:38;102330.56;;;18.52;100.00
66164;BME280;52962;51.088;3.096;2022-10-03T14:36:29;102319.00;;;18.51;100.00
66164;BME280;52962;51.088;3.096;2022-10-03T14:39:12;102316.34;;;18.53;100.00
66164;BME280;52962;51.088;3.096;2022-10-03T14:42:16;102313.69;;;18.56;100.00
66164;BME280;52962;51.088;3.096;2022-10-03T14:44:54;102309.22;;;18.52;100.00
66164;BME280;52962;51.088;3.096;2022-10-03T14:47:23;102303.94;;;18.56;100.00
66164;BME280;52962;51.088;3.096;2022-10-03T14:49:54;102297.00;;;18.75;100.00
66164;BME280;52962;51.088;3.096;2022-10-03T14:52:39;102291.75;;;18.84;100.00
66164;BME280;52962;51.088;3.096;2022-10-03T14:55:12;102301.53;;;18.82;100.00
66164;BME280;52962;51.088;3.096;2022-10-03T14:57:46;102287.13;;;18.62;100.00
66164;BME280;52962;51.088;3.096;2022-10-03T15:00:40;102290.47;;;18.46;100.00
66164;BME280;52962;51.088;3.096;2022-10-03T15:03:20;102286.69;;;18.27;100.00
66164;BME280;52962;51.088;3.096;2022-10-03T15:05:56;102285.59;;;18.10;100.00
66164;BME280;52962;51.088;3.096;2022-10-03T15:08:30;102281.84;;;17.94;100.00
66164;BME280;52962;51.088;3.096;2022-10-03T15:11:02;102288.88;;;17.89;100.00
66164;BME280;52962;51.088;3.096;2022-10-03T15:13:33;102285.25;;;17.82;100.00
66164;BME280;52962;51.088;3.096;2022-10-03T15:16:04;102272.78;;;17.80;100.00
66164;BME280;52962;51.088;3.096;2022-10-03T15:18:32;102257.63;;;17.77;100.00
66164;BME280;52962;51.088;3.096;2022-10-03T15:21:01;102272.66;;;17.71;100.00
66164;BME280;52962;51.088;3.096;2022-10-03T15:23:32;102272.63;;;17.68;100.00
66164;BME280;52962;51.088;3.096;2022-10-03T15:26:08;102274.41;;;17.69;100.00
66164;BME280;52962;51.088;3.096;2022-10-03T15:28:41;102263.81;;;17.75;100.00
66164;BME280;52962;51.088;3.096;2022-10-03T15:31:17;102265.59;;;17.76;100.00
66164;BME280;52962;51.088;3.096;2022-10-03T15:33:50;102273.59;;;17.74;100.00
66164;BME280;52962;51.088;3.096;2022-10-03T15:36:21;102278.06;;;17.77;100.00
66164;BME280;52962;51.088;3.096;2022-10-03T15:38:52;102272.69;;;17.74;100.00
66164;BME280;52962;51.088;3.096;2022-10-03T15:41:26;102271.75;;;17.70;100.00
66164;BME280;52962;51.088;3.096;2022-10-03T15:43:58;102263.72;;;17.69;100.00
66164;BME280;52962;51.088;3.096;2022-10-03T15:46:32;102261.81;;;17.58;100.00
66164;BME280;52962;51.088;3.096;2022-10-03T15:49:05;102265.41;;;17.60;100.00
66164;BME280;52962;51.088;3.096;2022-10-03T15:51:35;102260.25;;;17.73;100.00
66164;BME280;52962;51.088;3.096;2022-10-03T15:54:06;102253.31;;;17.87;100.00
66164;BME280;52962;51.088;3.096;2022-10-03T15:56:38;102262.34;;;17.98;100.00
66164;BME280;52962;51.088;3.096;2022-10-03T15:59:08;102246.44;;;18.06;100.00
66164;BME280;52962;51.088;3.096;2022-10-03T16:01:44;102250.88;;;18.04;100.00
66164;BME280;52962;51.088;3.096;2022-10-03T16:04:19;102242.88;;;18.04;100.00
66164;BME280;52962;51.088;3.096;2022-10-03T16:06:55;102246.28;;;17.92;100.00
66164;BME280;52962;51.088;3.096;2022-10-03T16:09:34;102248.84;;;17.84;100.00
66164;BME280;52962;51.088;3.096;2022-10-03T16:12:32;102247.84;;;17.75;100.00
66164;BME280;52962;51.088;3.096;2022-10-03T16:15:15;102247.75;;;17.69;100.00
66164;BME280;52962;51.088;3.096;2022-10-03T16:17:50;102245.91;;;17.64;100.00
66164;BME280;52962;51.088;3.096;2022-10-03T16:20:23;102250.22;;;17.55;100.00
66164;BME280;52962;51.088;3.096;2022-10-03T16:22:53;102246.63;;;17.53;100.00
66164;BME280;52962;51.088;3.096;2022-10-03T16:25:25;102249.19;;;17.45;100.00
66164;BME280;52962;51.088;3.096;2022-10-03T16:27:56;102247.31;;;17.38;100.00
66164;BME280;52962;51.088;3.096;2022-10-03T16:30:30;102244.53;;;17.30;100.00
66164;BME280;52962;51.088;3.096;2022-10-03T16:33:05;102247.09;;;17.23;100.00
66164;BME280;52962;51.088;3.096;2022-10-03T16:35:42;102254.97;;;17.17;100.00
66164;BME280;52962;51.088;3.096;2022-10-03T16:38:19;102253.06;;;17.08;100.00
66164;BME280;52962;51.088;3.096;2022-10-03T16:40:52;102244.09;;;17.02;100.00
66164;BME280;52962;51.088;3.096;2022-10-03T16:43:22;102232.47;;;16.96;100.00
66164;BME280;52962;51.088;3.096;2022-10-03T16:45:50;102230.53;;;16.86;100.00
66164;BME280;52962;51.088;3.096;2022-10-03T16:48:23;102229.47;;;16.77;100.00
66164;BME280;52962;51.088;3.096;2022-10-03T16:51:19;102216.91;;;16.68;100.00
66164;BME280;52962;51.088;3.096;2022-10-03T16:53:50;102224.72;;;16.59;100.00
66164;BME280;52962;51.088;3.096;2022-10-03T16:56:22;102213.06;;;16.51;100.00